Main page
METAR-TAF:

METAR-TAF

Airports :

Tunis–Carthage International Airport

Tunis, Tunisia

latitude: 36-50N, longitude: 010-14E, elevation: 3 m

Current weather observation

The report was made 22 minutes ago, at 00:30 UTC
Wind 4 kt from the South
Temperature 13°C
Humidity 77%
Pressure 1014 hPa
Visibility 10 km or more
Few clouds at a height of 2600 ft

METAR: DTTA 210030Z 19004KT 9999 FEW026 13/09 Q1014

Time: 01:52 (00:52 UTC)

Forecast

The report was made 1 hour and 52 minutes ago, at 23:00 UTC
Forecast valid from 21 at 00 UTC to 21 at 24 UTC
Wind 8 kt from the South/Southwest
Visibility 10 km or more
Few clouds at a height of 2600 ft
Becoming
from 21 at 10 UTC to 21 at 12 UTC
Wind 10 kt from the West/Northwest
Becoming
from 21 at 18 UTC to 21 at 20 UTC
Wind 4 kt from the South

TAF: DTTA 202300Z 2100/2124 20008KT 9999 FEW026 BECMG 2110/2112 30010KT BECMG 2118/2120 18004KT

Weather observations and forecasts of more than 4000 airports (METAR and TAF reports).

The available stations are represented by yellow and red dots on the map.

Hover mouse over dot to see the name of the station.

Then click to see weather observations and forecasts.

To change the map : click on the green buttons with a black cross to zoom in, on the green button with a dash to zoom out, or on the green arrows for adjacent maps.


METAR-TAF: